sensor_id;sensor_type;location;lat;lon;timestamp;temperature;humidity
2757;DHT22;1386;50.862;6.494;2023-12-20T09:15:51;6.70;99.90
2757;DHT22;1386;50.862;6.494;2023-12-20T09:18:18;6.70;99.90
2757;DHT22;1386;50.862;6.494;2023-12-20T09:20:45;6.70;99.90
2757;DHT22;1386;50.862;6.494;2023-12-20T09:23:12;6.60;99.90
2757;DHT22;1386;50.862;6.494;2023-12-20T09:25:39;6.60;99.90
2757;DHT22;1386;50.862;6.494;2023-12-20T09:28:06;6.60;99.90
2757;DHT22;1386;50.862;6.494;2023-12-20T09:30:33;6.60;99.90
2757;DHT22;1386;50.862;6.494;2023-12-20T09:33:02;6.60;99.90
2757;DHT22;1386;50.862;6.494;2023-12-20T09:35:29;6.60;99.90
2757;DHT22;1386;50.862;6.494;2023-12-20T09:37:55;6.60;99.90
2757;DHT22;1386;50.862;6.494;2023-12-20T09:40:26;6.70;99.90
2757;DHT22;1386;50.862;6.494;2023-12-20T09:42:57;6.70;99.90
2757;DHT22;1386;50.862;6.494;2023-12-20T09:45:24;6.70;99.90
2757;DHT22;1386;50.862;6.494;2023-12-20T09:47:53;6.70;99.90
2757;DHT22;1386;50.862;6.494;2023-12-20T09:50:22;6.70;99.90
2757;DHT22;1386;50.862;6.494;2023-12-20T09:52:51;6.70;99.90
2757;DHT22;1386;50.862;6.494;2023-12-20T09:55:19;6.70;99.90
2757;DHT22;1386;50.862;6.494;2023-12-20T09:57:47;6.70;99.90
2757;DHT22;1386;50.862;6.494;2023-12-20T10:00:14;6.80;99.90
2757;DHT22;1386;50.862;6.494;2023-12-20T10:02:48;6.90;99.90
2757;DHT22;1386;50.862;6.494;2023-12-20T11:04:58;7.10;99.90
2757;DHT22;1386;50.862;6.494;2023-12-20T11:07:32;7.10;99.90
2757;DHT22;1386;50.862;6.494;2023-12-20T11:10:11;7.10;99.90
2757;DHT22;1386;50.862;6.494;2023-12-20T11:12:47;7.00;99.90
2757;DHT22;1386;50.862;6.494;2023-12-20T11:15:16;7.10;99.90
2757;DHT22;1386;50.862;6.494;2023-12-20T11:17:45;7.00;99.90
2757;DHT22;1386;50.862;6.494;2023-12-20T11:20:14;7.10;99.90
2757;DHT22;1386;50.862;6.494;2023-12-20T11:22:52;7.10;99.90
2757;DHT22;1386;50.862;6.494;2023-12-20T11:25:20;7.10;99.90
2757;DHT22;1386;50.862;6.494;2023-12-20T11:28:09;7.10;99.90
2757;DHT22;1386;50.862;6.494;2023-12-20T11:30:46;7.10;99.90
2757;DHT22;1386;50.862;6.494;2023-12-20T11:39:55;7.20;99.90
2757;DHT22;1386;50.862;6.494;2023-12-20T11:42:23;7.20;99.90
2757;DHT22;1386;50.862;6.494;2023-12-20T11:44:52;7.20;99.90
2757;DHT22;1386;50.862;6.494;2023-12-20T11:47:20;7.30;99.90
2757;DHT22;1386;50.862;6.494;2023-12-20T11:49:53;7.30;99.90
2757;DHT22;1386;50.862;6.494;2023-12-20T11:52:21;7.30;99.90
2757;DHT22;1386;50.862;6.494;2023-12-20T11:54:48;7.30;99.90
2757;DHT22;1386;50.862;6.494;2023-12-20T11:57:18;7.40;99.90
2757;DHT22;1386;50.862;6.494;2023-12-20T11:59:45;7.30;99.90
2757;DHT22;1386;50.862;6.494;2023-12-20T12:02:11;7.30;99.90
2757;DHT22;1386;50.862;6.494;2023-12-20T12:04:41;7.30;99.90
2757;DHT22;1386;50.862;6.494;2023-12-20T12:07:08;7.30;99.90
2757;DHT22;1386;50.862;6.494;2023-12-20T12:09:35;7.30;99.90
2757;DHT22;1386;50.862;6.494;2023-12-20T12:12:03;7.30;99.90
2757;DHT22;1386;50.862;6.494;2023-12-20T12:14:31;7.30;99.90
2757;DHT22;1386;50.862;6.494;2023-12-20T12:16:58;7.30;99.90
2757;DHT22;1386;50.862;6.494;2023-12-20T12:19:26;7.30;99.90
2757;DHT22;1386;50.862;6.494;2023-12-20T12:22:16;7.30;99.90
2757;DHT22;1386;50.862;6.494;2023-12-20T12:35:51;7.30;99.90
2757;DHT22;1386;50.862;6.494;2023-12-20T12:38:20;7.30;99.90
2757;DHT22;1386;50.862;6.494;2023-12-20T12:40:47;7.30;99.90
2757;DHT22;1386;50.862;6.494;2023-12-20T12:43:15;7.30;99.90
2757;DHT22;1386;50.862;6.494;2023-12-20T12:45:42;7.30;99.90
2757;DHT22;1386;50.862;6.494;2023-12-20T12:48:10;7.30;99.90
2757;DHT22;1386;50.862;6.494;2023-12-20T12:50:37;7.30;99.90
2757;DHT22;1386;50.862;6.494;2023-12-20T12:53:06;7.30;99.90
2757;DHT22;1386;50.862;6.494;2023-12-20T12:55:34;7.40;99.90
2757;DHT22;1386;50.862;6.494;2023-12-20T12:58:01;7.30;99.90
2757;DHT22;1386;50.862;6.494;2023-12-20T13:00:29;7.30;99.90
2757;DHT22;1386;50.862;6.494;2023-12-20T13:02:56;7.30;99.90
2757;DHT22;1386;50.862;6.494;2023-12-20T13:05:23;7.30;99.90
2757;DHT22;1386;50.862;6.494;2023-12-20T13:07:51;7.30;99.90
2757;DHT22;1386;50.862;6.494;2023-12-20T13:10:19;7.40;99.90
2757;DHT22;1386;50.862;6.494;2023-12-20T13:12:46;7.30;99.90
2757;DHT22;1386;50.862;6.494;2023-12-20T13:15:13;7.30;99.90
2757;DHT22;1386;50.862;6.494;2023-12-20T13:17:41;7.40;99.90
2757;DHT22;1386;50.862;6.494;2023-12-20T13:20:09;7.40;99.90
2757;DHT22;1386;50.862;6.494;2023-12-20T13:22:36;7.30;99.90
2757;DHT22;1386;50.862;6.494;2023-12-20T13:25:03;7.30;99.90
2757;DHT22;1386;50.862;6.494;2023-12-20T13:27:33;7.40;99.90
2757;DHT22;1386;50.862;6.494;2023-12-20T13:30:00;7.40;99.90
2757;DHT22;1386;50.862;6.494;2023-12-20T13:32:27;7.40;99.90
2757;DHT22;1386;50.862;6.494;2023-12-20T13:34:54;7.40;99.90
2757;DHT22;1386;50.862;6.494;2023-12-20T13:37:21;7.50;99.90
2757;DHT22;1386;50.862;6.494;2023-12-20T13:39:48;7.50;99.90
2757;DHT22;1386;50.862;6.494;2023-12-20T13:42:16;7.50;99.90
2757;DHT22;1386;50.862;6.494;2023-12-20T13:44:44;7.50;99.90
2757;DHT22;1386;50.862;6.494;2023-12-20T13:47:12;7.60;99.90
2757;DHT22;1386;50.862;6.494;2023-12-20T13:49:39;7.50;99.90
2757;DHT22;1386;50.862;6.494;2023-12-20T13:52:07;7.50;99.90
2757;DHT22;1386;50.862;6.494;2023-12-20T13:54:34;7.50;99.90
2757;DHT22;1386;50.862;6.494;2023-12-20T13:57:02;7.50;99.90
2757;DHT22;1386;50.862;6.494;2023-12-20T13:59:29;7.50;99.90
2757;DHT22;1386;50.862;6.494;2023-12-20T14:01:58;7.50;99.90
2757;DHT22;1386;50.862;6.494;2023-12-20T14:04:26;7.50;99.90
2757;DHT22;1386;50.862;6.494;2023-12-20T14:06:53;7.50;99.90
2757;DHT22;1386;50.862;6.494;2023-12-20T14:09:21;7.50;99.90
2757;DHT22;1386;50.862;6.494;2023-12-20T14:11:47;7.60;99.90
2757;DHT22;1386;50.862;6.494;2023-12-20T14:14:15;7.50;99.90
2757;DHT22;1386;50.862;6.494;2023-12-20T14:16:42;7.50;99.90
2757;DHT22;1386;50.862;6.494;2023-12-20T14:19:12;7.50;99.90
2757;DHT22;1386;50.862;6.494;2023-12-20T14:21:39;7.50;99.90
2757;DHT22;1386;50.862;6.494;2023-12-20T14:24:06;7.50;99.90
2757;DHT22;1386;50.862;6.494;2023-12-20T14:26:33;7.50;99.90
2757;DHT22;1386;50.862;6.494;2023-12-20T14:29:01;7.50;99.90
2757;DHT22;1386;50.862;6.494;2023-12-20T14:31:29;7.60;99.90
2757;DHT22;1386;50.862;6.494;2023-12-20T14:33:56;7.60;99.90
2757;DHT22;1386;50.862;6.494;2023-12-20T14:36:25;7.60;99.90
2757;DHT22;1386;50.862;6.494;2023-12-20T14:38:52;7.60;99.90
2757;DHT22;1386;50.862;6.494;2023-12-20T14:41:20;7.60;99.90
2757;DHT22;1386;50.862;6.494;2023-12-20T14:43:50;7.60;99.90
2757;DHT22;1386;50.862;6.494;2023-12-20T14:46:17;7.60;99.90
2757;DHT22;1386;50.862;6.494;2023-12-20T14:48:44;7.60;99.90
2757;DHT22;1386;50.862;6.494;2023-12-20T14:51:12;7.60;99.90
2757;DHT22;1386;50.862;6.494;2023-12-20T14:53:40;7.60;99.90
2757;DHT22;1386;50.862;6.494;2023-12-20T14:56:08;7.60;99.90
2757;DHT22;1386;50.862;6.494;2023-12-20T14:58:35;7.70;99.90
2757;DHT22;1386;50.862;6.494;2023-12-20T15:01:02;7.70;99.90
2757;DHT22;1386;50.862;6.494;2023-12-20T15:03:30;7.70;99.90
2757;DHT22;1386;50.862;6.494;2023-12-20T15:05:57;7.70;99.90
2757;DHT22;1386;50.862;6.494;2023-12-20T15:08:25;7.70;99.90
2757;DHT22;1386;50.862;6.494;2023-12-20T15:10:53;7.70;99.90
2757;DHT22;1386;50.862;6.494;2023-12-20T15:13:20;7.70;99.90
2757;DHT22;1386;50.862;6.494;2023-12-20T15:15:47;7.70;99.90
2757;DHT22;1386;50.862;6.494;2023-12-20T15:18:14;7.70;99.90
2757;DHT22;1386;50.862;6.494;2023-12-20T15:20:41;7.70;99.90
2757;DHT22;1386;50.862;6.494;2023-12-20T15:23:10;7.70;99.90
2757;DHT22;1386;50.862;6.494;2023-12-20T15:25:37;7.80;99.90
2757;DHT22;1386;50.862;6.494;2023-12-20T15:28:08;7.70;99.90
2757;DHT22;1386;50.862;6.494;2023-12-20T15:30:36;7.70;99.90
2757;DHT22;1386;50.862;6.494;2023-12-20T15:33:04;7.70;99.90
2757;DHT22;1386;50.862;6.494;2023-12-20T15:35:31;7.70;99.90
2757;DHT22;1386;50.862;6.494;2023-12-20T15:37:58;7.70;99.90
2757;DHT22;1386;50.862;6.494;2023-12-20T15:40:25;7.60;99.90
2757;DHT22;1386;50.862;6.494;2023-12-20T15:42:52;7.60;99.90
2757;DHT22;1386;50.862;6.494;2023-12-20T15:45:22;7.60;99.90
2757;DHT22;1386;50.862;6.494;2023-12-20T15:47:49;7.60;99.90
2757;DHT22;1386;50.862;6.494;2023-12-20T15:50:16;7.60;99.90
2757;DHT22;1386;50.862;6.494;2023-12-20T15:52:44;7.60;99.90
2757;DHT22;1386;50.862;6.494;2023-12-20T15:55:11;7.60;99.90
2757;DHT22;1386;50.862;6.494;2023-12-20T15:57:38;7.50;99.90
2757;DHT22;1386;50.862;6.494;2023-12-20T16:00:06;7.50;99.90
2757;DHT22;1386;50.862;6.494;2023-12-20T16:02:35;7.50;99.90
2757;DHT22;1386;50.862;6.494;2023-12-20T16:05:02;7.50;99.90
2757;DHT22;1386;50.862;6.494;2023-12-20T16:07:29;7.40;99.90
2757;DHT22;1386;50.862;6.494;2023-12-20T16:09:56;7.50;99.90
2757;DHT22;1386;50.862;6.494;2023-12-20T16:12:23;7.50;99.90
2757;DHT22;1386;50.862;6.494;2023-12-20T16:14:50;7.40;99.90
2757;DHT22;1386;50.862;6.494;2023-12-20T16:17:17;7.40;99.90
2757;DHT22;1386;50.862;6.494;2023-12-20T16:19:46;7.50;99.90
2757;DHT22;1386;50.862;6.494;2023-12-20T16:22:13;7.50;99.90
2757;DHT22;1386;50.862;6.494;2023-12-20T16:24:40;7.50;99.90
2757;DHT22;1386;50.862;6.494;2023-12-20T16:27:08;7.50;99.90
2757;DHT22;1386;50.862;6.494;2023-12-20T16:29:35;7.60;99.90
2757;DHT22;1386;50.862;6.494;2023-12-20T16:32:06;7.60;99.90
2757;DHT22;1386;50.862;6.494;2023-12-20T16:34:36;7.60;99.90
2757;DHT22;1386;50.862;6.494;2023-12-20T22:58:05;8.40;99.90
2757;DHT22;1386;50.862;6.494;2023-12-20T23:00:31;8.50;99.90
2757;DHT22;1386;50.862;6.494;2023-12-20T23:02:58;8.50;99.90
2757;DHT22;1386;50.862;6.494;2023-12-20T23:05:25;8.40;99.90
2757;DHT22;1386;50.862;6.494;2023-12-20T23:07:52;8.50;99.90
2757;DHT22;1386;50.862;6.494;2023-12-20T23:10:19;8.50;99.90
2757;DHT22;1386;50.862;6.494;2023-12-20T23:12:50;8.50;99.90
2757;DHT22;1386;50.862;6.494;2023-12-20T23:15:18;8.50;99.90
2757;DHT22;1386;50.862;6.494;2023-12-20T23:17:47;8.50;99.90
2757;DHT22;1386;50.862;6.494;2023-12-20T23:20:14;8.50;99.90
